Joe Foss Field Airport
KFSD : now visible

Airfield :











YOU CAN JOIN US ON...

 
LOGIN :

Register | Disclaimer

   EN    FR    IT 

 









Legend :    VFR   Marginal VFR   IFR   Intensive IFR   Very Intensive IFR
Visi :
Ceiling :
>= 8 km
>= 3000ft
5 to 8 km
1000 to 3000 ft
1500m to 5 km
500 to 1000 ft
800 to 1500m
200 to 500 ft
< 800m
< 200 ft
Symbols :   Thunderstorms  Fog  Heavy snow  Heavy precipitations  Wind > 20 kt






- Airport Elevation : 1429 ft
- IATA code : FSD


KFSD - Joe Foss Field

CURRENT METAR :
  • 240456Z 36009KT 1SM BR OVC003 M02/M03 A3006 RMK AO2 SLP196 I1000 T10171028 RVRNO

EXPIRED METARs :
  • 240401Z 36008KT 1SM BR OVC004 M02/M03 A3005 RMK AO2 T10171028 RVRNO
  • 240343Z 36007KT 4SM BR OVC005 M02/M03 A3005 RMK AO2 T10171028
  • 240301Z 01008KT 4SM BR OVC004 M02/M03 A3005 RMK AO2 T10171028
  • 240256Z 01008KT 4SM BR OVC005 M02/M03 A3005 RMK AO2 SLP192 60000 T10171033 51005

TAF KFSD
Valid from the 24 at 06:00 until the 25 at 06:00 UTC


240522Z 2406/2506 35007KT 1 1/2SM BR OVC003
FM240900 35007KT 4SM BR OVC005
FM241700 35006KT 6SM BR BKN010
FM250000 VRB04KT 6SM BR BKN010



MET'MAP, your aeronautical weather chart ! - Copyright ORBIFLY December 2007 - Disclaimer

ORBIFLY MET'MAP TEAM :

Programming & Development : Alexandra Zaïnal
Concept & original design : Baudouin d'Aumeries
Assistance for programming : Marc-Olivier Méhu
Technical & hardware support : Manuel Goepfert

Contact : metmap@orbifly.com




SOURCES & CREDITS :

   NOAA       Earth
Advisory